createdAt,value
2019-02-02T00:02:57.029Z,10.63
2019-02-02T00:08:12.815Z,10.80
2019-02-02T00:13:27.958Z,5.00
2019-02-02T00:18:43.023Z,4.83
2019-02-02T00:23:59.384Z,5.70
2019-02-02T00:29:17.880Z,6.87
2019-02-02T00:34:33.396Z,7.85
2019-02-02T00:39:48.333Z,7.23
2019-02-02T00:45:03.402Z,7.05
2019-02-02T00:50:19.718Z,11.10
2019-02-02T00:55:35.300Z,5.75
2019-02-02T01:00:50.546Z,6.17
2019-02-02T01:06:05.958Z,3.43
2019-02-02T01:11:23.190Z,6.80
2019-02-02T01:16:38.702Z,7.72
2019-02-02T01:21:54.096Z,5.47
2019-02-02T01:27:09.740Z,5.60
2019-02-02T01:32:24.651Z,8.03
2019-02-02T01:37:39.733Z,7.05
2019-02-02T01:42:55.463Z,5.50
2019-02-02T01:48:11.865Z,4.87
2019-02-02T01:53:27.772Z,5.35
2019-02-02T01:58:43.419Z,4.53
2019-02-02T02:03:58.542Z,4.20
2019-02-02T02:09:14.140Z,6.03
2019-02-02T02:14:29.875Z,6.85
2019-02-02T02:19:45.337Z,4.90
2019-02-02T02:25:00.358Z,4.40
2019-02-02T02:30:21.754Z,4.67
2019-02-02T02:35:37.274Z,3.50
2019-02-02T02:40:52.734Z,5.70
2019-02-02T02:46:08.113Z,3.80
2019-02-02T02:51:23.612Z,3.63
2019-02-02T02:56:40.352Z,3.42
2019-02-02T03:01:55.530Z,5.67
2019-02-02T03:07:11.038Z,6.60
2019-02-02T03:12:26.616Z,4.87
2019-02-02T03:17:42.264Z,2.10
2019-02-02T03:22:59.325Z,4.53
2019-02-02T03:28:14.609Z,3.27
2019-02-02T03:33:29.938Z,2.67
2019-02-02T03:38:45.566Z,5.20
2019-02-02T03:44:00.820Z,4.27
2019-02-02T03:49:16.150Z,3.87
2019-02-02T03:54:31.092Z,6.73
2019-02-02T03:59:46.224Z,6.53
2019-02-02T04:05:01.103Z,3.50
2019-02-02T04:10:16.681Z,3.97
2019-02-02T04:15:33.588Z,4.67
2019-02-02T04:20:49.563Z,5.63
2019-02-02T04:26:05.305Z,5.67
2019-02-02T04:31:20.684Z,3.58
2019-02-02T04:36:37.307Z,3.90
2019-02-02T04:41:52.722Z,3.43
2019-02-02T04:47:07.739Z,3.17
2019-02-02T04:52:22.871Z,5.23
2019-02-02T04:57:37.749Z,4.90
2019-02-02T05:02:53.643Z,5.13
2019-02-02T05:08:09.164Z,4.95
2019-02-02T05:13:24.660Z,6.10
2019-02-02T05:18:40.173Z,3.83
2019-02-02T05:23:55.564Z,5.05
2019-02-02T05:29:10.793Z,2.85
2019-02-02T05:34:26.518Z,1.77
2019-02-02T05:39:42.170Z,2.15
2019-02-02T05:44:57.384Z,2.37
2019-02-02T05:50:15.023Z,6.43
2019-02-02T05:55:30.238Z,2.37
2019-02-02T06:00:51.110Z,2.93
2019-02-02T06:06:06.997Z,4.05
2019-02-02T06:11:22.541Z,3.50
2019-02-02T06:16:37.568Z,3.40
2019-02-02T06:21:52.968Z,2.90
2019-02-02T06:27:10.536Z,3.07
2019-02-02T06:32:25.642Z,2.23
2019-02-02T06:37:41.021Z,3.47
2019-02-02T06:42:55.998Z,2.30
2019-02-02T06:48:11.333Z,1.60
2019-02-02T06:53:27.805Z,2.20
2019-02-02T06:58:42.968Z,2.20
2019-02-02T07:03:58.451Z,1.57
2019-02-02T07:09:16.898Z,3.53
2019-02-02T07:14:31.825Z,3.73
2019-02-02T07:19:47.262Z,1.53
2019-02-02T07:25:02.151Z,2.70
2019-02-02T07:30:28.277Z,2.70
2019-02-02T07:35:36.621Z,2.27
2019-02-02T07:40:52.010Z,1.47
2019-02-02T07:46:14.710Z,3.33
2019-02-02T07:51:25.487Z,3.10
2019-02-02T07:56:40.362Z,3.07
2019-02-02T08:01:55.816Z,2.87
2019-02-02T08:07:12.159Z,3.60
2019-02-02T08:12:27.614Z,2.03
2019-02-02T08:17:42.884Z,3.97
2019-02-02T08:22:59.690Z,2.07
2019-02-02T08:28:14.821Z,4.13
2019-02-02T08:33:29.981Z,6.40
2019-02-02T08:38:44.897Z,3.00
2019-02-02T08:44:00.264Z,1.20
2019-02-02T08:49:15.925Z,3.63
2019-02-02T08:54:35.127Z,4.23
2019-02-02T08:59:50.725Z,4.90
2019-02-02T09:05:07.493Z,3.03
2019-02-02T09:10:25.290Z,5.73
2019-02-02T09:15:40.537Z,2.60
2019-02-02T09:20:55.459Z,6.23
2019-02-02T09:26:10.829Z,5.33
2019-02-02T09:31:26.208Z,2.30
2019-02-02T09:36:41.456Z,2.13
2019-02-02T09:41:56.791Z,6.73
2019-02-02T09:47:11.673Z,6.10
2019-02-02T09:52:27.124Z,6.80
2019-02-02T09:57:42.886Z,4.13
2019-02-02T10:02:59.861Z,4.60
2019-02-02T10:08:14.806Z,4.23
2019-02-02T10:13:30.317Z,4.13
2019-02-02T10:18:45.574Z,8.53
2019-02-02T10:24:01.220Z,3.67
2019-02-02T10:29:20.908Z,4.03
2019-02-02T10:34:37.073Z,6.23
2019-02-02T10:39:52.520Z,3.20
2019-02-02T10:45:09.910Z,11.27
2019-02-02T10:50:25.483Z,11.27
2019-02-02T10:55:40.690Z,4.97
2019-02-02T11:00:56.124Z,3.83
2019-02-02T11:06:11.644Z,11.23
2019-02-02T11:11:26.629Z,9.43
2019-02-02T11:16:42.197Z,7.57
2019-02-02T11:21:57.624Z,13.53
2019-02-02T11:27:14.676Z,12.57
2019-02-02T11:32:29.973Z,10.70
2019-02-02T11:37:45.061Z,13.37
2019-02-02T11:43:00.671Z,8.03
2019-02-02T11:48:16.052Z,5.97
2019-02-02T11:53:31.446Z,6.80
2019-02-02T11:58:46.804Z,12.57
2019-02-02T12:04:01.843Z,12.23
2019-02-02T12:09:17.618Z,10.35
2019-02-02T12:14:32.783Z,22.33
2019-02-02T12:19:48.023Z,18.93
2019-02-02T12:25:03.645Z,18.50
2019-02-02T12:30:25.334Z,21.30
2019-02-02T12:35:41.365Z,19.52
2019-02-02T12:40:59.550Z,15.33
2019-02-02T12:46:13.569Z,13.23
2019-02-02T12:51:28.546Z,16.60
2019-02-02T12:56:43.871Z,15.33
2019-02-02T13:01:59.138Z,12.57
2019-02-02T13:07:14.786Z,13.63
2019-02-02T13:12:30.205Z,15.83
2019-02-02T13:17:45.348Z,12.00
2019-02-02T13:23:00.255Z,21.37
2019-02-02T13:28:16.607Z,12.83
2019-02-02T13:33:31.856Z,7.97
2019-02-02T13:38:47.171Z,16.37
2019-02-02T13:44:02.734Z,11.53
2019-02-02T13:49:18.820Z,9.78
2019-02-02T13:54:33.973Z,8.50
2019-02-02T13:59:49.428Z,11.67
2019-02-02T14:05:06.507Z,11.70
2019-02-02T14:10:27.575Z,13.77
2019-02-02T14:15:42.887Z,18.07
2019-02-02T14:20:58.564Z,10.20
2019-02-02T14:26:14.070Z,10.53
2019-02-02T14:31:30.274Z,7.67
2019-02-02T14:36:46.572Z,8.80
2019-02-02T14:42:02.099Z,11.37
2019-02-02T14:47:17.654Z,8.00
2019-02-02T14:52:32.965Z,8.97
2019-02-02T14:57:48.456Z,9.53
2019-02-02T15:03:04.273Z,8.15
2019-02-02T15:08:19.767Z,11.60
2019-02-02T15:13:35.067Z,6.47
2019-02-02T15:18:50.224Z,5.33
2019-02-02T15:24:06.016Z,8.17
2019-02-02T15:29:21.479Z,8.23
2019-02-02T15:34:36.673Z,9.50
2019-02-02T15:39:52.032Z,6.80
2019-02-02T15:45:09.381Z,5.20
2019-02-02T15:50:25.611Z,5.53
2019-02-02T15:55:40.934Z,8.13
2019-02-02T16:00:56.461Z,7.93
2019-02-02T16:06:11.733Z,8.07
2019-02-02T16:11:26.766Z,6.60
2019-02-02T16:16:43.232Z,5.07
2019-02-02T16:21:59.567Z,7.33
2019-02-02T16:27:15.240Z,4.80
2019-02-02T16:32:30.974Z,6.65
2019-02-02T16:37:46.273Z,7.07
2019-02-02T16:43:01.380Z,7.13
2019-02-02T16:48:18.180Z,3.43
2019-02-02T16:53:35.762Z,4.90
2019-02-02T16:58:51.404Z,9.43
2019-02-02T17:04:15.410Z,7.07
2019-02-02T17:09:23.814Z,5.13
2019-02-02T17:14:39.361Z,12.03
2019-02-02T17:19:54.982Z,7.97
2019-02-02T17:25:14.038Z,10.80
2019-02-02T17:30:29.491Z,11.93
2019-02-02T17:35:46.058Z,11.77
2019-02-02T17:41:02.747Z,5.67
2019-02-02T17:46:18.034Z,4.50
2019-02-02T17:51:33.326Z,10.53
2019-02-02T17:56:49.027Z,7.57
2019-02-02T18:02:05.451Z,6.53
2019-02-02T18:07:20.927Z,9.70
2019-02-02T18:12:36.444Z,8.45
2019-02-02T18:17:51.930Z,9.23
2019-02-02T18:23:07.815Z,12.67
2019-02-02T18:28:23.613Z,11.60
2019-02-02T18:33:42.050Z,7.50
2019-02-02T18:38:58.640Z,6.57
2019-02-02T18:44:14.697Z,9.40
2019-02-02T18:49:29.927Z,8.07
2019-02-02T18:54:45.102Z,5.90
2019-02-02T19:00:00.292Z,7.80
2019-02-02T19:05:17.288Z,10.23
2019-02-02T19:10:34.966Z,6.63
2019-02-02T19:15:50.083Z,11.60
2019-02-02T19:21:05.601Z,6.87
2019-02-02T19:26:21.042Z,6.57
2019-02-02T19:31:36.360Z,12.53
2019-02-02T19:36:52.249Z,6.75
2019-02-02T19:42:07.813Z,10.30
2019-02-02T19:47:23.364Z,5.80
2019-02-02T19:52:40.499Z,4.20
2019-02-02T19:57:55.961Z,5.60
2019-02-02T20:03:11.129Z,4.80
2019-02-02T20:08:26.357Z,3.40
2019-02-02T20:13:41.870Z,6.95
2019-02-02T20:18:57.080Z,9.50
2019-02-02T20:24:12.862Z,7.62
2019-02-02T20:29:28.359Z,5.70
2019-02-02T20:34:43.534Z,6.83
2019-02-02T20:39:59.000Z,5.33
2019-02-02T20:45:23.931Z,7.03
2019-02-02T20:50:39.215Z,5.17
2019-02-02T20:55:54.484Z,6.50
2019-02-02T21:01:10.156Z,9.50
2019-02-02T21:06:26.326Z,5.47
2019-02-02T21:11:41.697Z,5.07
2019-02-02T21:16:57.232Z,5.83
2019-02-02T21:22:12.914Z,5.23
2019-02-02T21:27:28.466Z,6.17
2019-02-02T21:32:43.982Z,5.07
2019-02-02T21:37:59.481Z,3.60
2019-02-02T21:43:15.911Z,3.00
2019-02-02T21:48:31.339Z,5.80
2019-02-02T21:53:47.225Z,7.17
2019-02-02T21:59:02.864Z,4.00
2019-02-02T22:04:18.502Z,4.80
2019-02-02T22:09:33.487Z,6.87
2019-02-02T22:14:48.841Z,5.53
2019-02-02T22:20:04.602Z,5.93
2019-02-02T22:25:27.214Z,7.28
2019-02-02T22:30:42.875Z,3.73
2019-02-02T22:35:58.965Z,5.25
2019-02-02T22:41:14.530Z,5.23
2019-02-02T22:46:30.462Z,5.83
2019-02-02T22:51:46.222Z,9.28
2019-02-02T22:57:01.637Z,2.67
2019-02-02T23:02:21.499Z,10.90
2019-02-02T23:08:57.936Z,4.17
2019-02-02T23:15:05.604Z,6.00
2019-02-02T23:20:23.276Z,6.15
2019-02-02T23:25:42.364Z,8.37
2019-02-02T23:30:59.328Z,6.43
2019-02-02T23:36:14.869Z,8.33
2019-02-02T23:41:30.596Z,2.57
2019-02-02T23:46:46.095Z,7.47
2019-02-02T23:52:02.101Z,6.63
2019-02-02T23:57:17.821Z,9.25
